createdAt,value
2023-01-11T00:07:48.795Z,9.40
2023-01-11T00:18:10.292Z,9.50
2023-01-11T00:28:33.356Z,9.50
2023-01-11T00:38:55.469Z,9.50
2023-01-11T00:49:18.632Z,9.50
2023-01-11T00:59:40.738Z,9.60
2023-01-11T01:10:03.918Z,9.70
2023-01-11T01:20:26.270Z,9.70
2023-01-11T01:30:52.319Z,9.80
2023-01-11T01:41:14.847Z,9.90
2023-01-11T01:51:43.258Z,9.90
2023-01-11T02:02:04.460Z,10.00
2023-01-11T02:12:30.346Z,10.20
2023-01-11T02:23:25.814Z,10.30
2023-01-11T02:33:58.545Z,10.50
2023-01-11T02:44:44.689Z,10.50
2023-01-11T02:55:09.268Z,10.50
2023-01-11T03:05:30.579Z,10.40
2023-01-11T03:16:15.398Z,10.50
2023-01-11T03:26:42.882Z,10.50
2023-01-11T03:37:11.789Z,10.60
2023-01-11T03:47:34.720Z,10.60
2023-01-11T03:57:59.137Z,10.50
2023-01-11T04:08:20.406Z,10.50
2023-01-11T04:18:43.072Z,10.60
2023-01-11T04:29:04.494Z,10.60
2023-01-11T04:39:27.145Z,10.60
2023-01-11T04:49:48.811Z,10.70
2023-01-11T05:00:13.193Z,10.60
2023-01-11T05:10:34.611Z,10.60
2023-01-11T05:20:57.287Z,10.70
2023-01-11T05:31:19.100Z,10.80
2023-01-11T05:41:42.105Z,10.70
2023-01-11T05:52:03.355Z,10.80
2023-01-11T06:02:25.949Z,10.80
2023-01-11T06:13:13.042Z,10.90
2023-01-11T06:23:38.443Z,10.90
2023-01-11T06:34:00.737Z,11.00
2023-01-11T06:44:23.405Z,11.00
2023-01-11T06:54:44.911Z,11.00
2023-01-11T07:05:07.924Z,11.10
2023-01-11T07:15:29.417Z,11.00
2023-01-11T07:25:52.335Z,11.00
2023-01-11T07:36:14.026Z,11.00
2023-01-11T07:46:36.754Z,11.00
2023-01-11T07:56:58.276Z,11.10
2023-01-11T08:07:20.942Z,11.20
2023-01-11T08:17:42.210Z,11.40
2023-01-11T08:28:07.243Z,11.60
2023-01-11T08:38:28.633Z,11.80
2023-01-11T08:48:52.346Z,11.90
2023-01-11T08:59:14.000Z,12.00
2023-01-11T09:09:37.741Z,12.10
2023-01-11T09:19:58.925Z,12.30
2023-01-11T09:30:23.891Z,12.50
2023-01-11T09:40:57.122Z,12.70
2023-01-11T09:51:20.680Z,12.70
2023-01-11T10:01:46.906Z,12.80
2023-01-11T10:23:06.297Z,12.90
2023-01-11T10:33:49.903Z,12.60
2023-01-11T10:44:19.311Z,12.40
2023-01-11T10:54:46.886Z,12.20
2023-01-11T11:05:20.240Z,12.20
2023-01-11T11:15:54.717Z,12.20
2023-01-11T11:26:16.322Z,12.10
2023-01-11T11:36:47.123Z,12.20
2023-01-11T11:47:16.423Z,12.20
2023-01-11T11:57:42.800Z,12.30
2023-01-11T12:08:04.622Z,12.30
2023-01-11T12:18:31.155Z,12.40
2023-01-11T12:29:01.387Z,12.50
2023-01-11T12:39:36.494Z,12.60
2023-01-11T12:50:03.078Z,12.70
2023-01-11T13:00:38.494Z,12.70
2023-01-11T13:11:09.902Z,12.80
2023-01-11T13:21:36.641Z,12.80
2023-01-11T13:32:01.186Z,12.80
2023-01-11T13:42:28.275Z,12.80
2023-01-11T13:53:03.365Z,12.90
2023-01-11T14:03:40.960Z,12.90
2023-01-11T14:14:37.366Z,13.00
2023-01-11T14:25:04.020Z,13.00
2023-01-11T14:35:47.687Z,13.00
2023-01-11T14:46:41.341Z,13.10
2023-01-11T14:57:04.048Z,13.10
2023-01-11T15:07:36.465Z,13.20
2023-01-11T15:18:15.764Z,13.20
2023-01-11T15:28:48.674Z,13.20
2023-01-11T15:39:12.397Z,13.30
2023-01-11T15:50:00.611Z,13.30
2023-01-11T16:00:48.571Z,13.40
2023-01-11T16:11:19.892Z,13.40
2023-01-11T16:21:42.821Z,13.40
2023-01-11T16:32:07.615Z,13.40
2023-01-11T16:42:34.429Z,13.40
2023-01-11T16:52:59.736Z,13.40
2023-01-11T17:03:25.147Z,13.40
2023-01-11T17:14:19.145Z,13.40
2023-01-11T17:24:43.180Z,13.40
2023-01-11T17:35:08.162Z,13.40
2023-01-11T17:45:30.298Z,13.40
2023-01-11T17:55:55.676Z,13.50
2023-01-11T18:06:24.677Z,13.50
2023-01-11T18:17:02.124Z,13.40
2023-01-11T18:27:29.145Z,13.60
2023-01-11T18:37:52.698Z,13.60
2023-01-11T18:48:15.451Z,13.30
2023-01-11T18:58:38.339Z,13.20
2023-01-11T19:08:59.626Z,13.10
2023-01-11T19:19:22.318Z,13.00
2023-01-11T19:29:43.724Z,13.00
2023-01-11T19:40:09.327Z,13.00
2023-01-11T19:50:31.033Z,12.90
2023-01-11T20:00:56.904Z,12.70
2023-01-11T20:11:20.216Z,12.80
2023-01-11T20:21:43.315Z,12.60
2023-01-11T20:32:27.798Z,12.60
2023-01-11T20:42:56.759Z,12.50
2023-01-11T20:53:18.244Z,12.40
2023-01-11T21:03:45.000Z,12.40
2023-01-11T21:14:11.765Z,12.40
2023-01-11T21:24:34.762Z,12.30
2023-01-11T21:34:56.138Z,12.20
2023-01-11T21:45:19.160Z,11.90
2023-01-11T21:55:40.763Z,11.80
2023-01-11T22:06:05.347Z,11.80
2023-01-11T22:16:27.273Z,11.50
2023-01-11T22:26:50.922Z,11.50
2023-01-11T22:37:12.723Z,11.40
2023-01-11T22:47:36.171Z,11.10
2023-01-11T22:57:57.743Z,11.20
2023-01-11T23:08:20.669Z,11.50
2023-01-11T23:18:42.574Z,11.60
2023-01-11T23:29:05.905Z,11.50
2023-01-11T23:39:27.379Z,11.40
2023-01-11T23:49:51.031Z,11.30
